Bridgeport, NE (69336)

6:11 AM MDT on August 31, 2014 (GMT -0600)
The Clinger Family | Change Station
CLOSE
Current Station
Personal Weather Station
Location: Bridgeport, NE
Elevation: 3666 ft
Nearby Weather Stations

Elev 3666 ft 41.66 °N, 103.10 °W | Updated 7 minutes ago

Overcast
Overcast
59.8 °F
Feels Like 59.8 °F
N
3.0
Wind Variable Wind from WNW

Today
High -- | Low -- °F
--% Chance of Precip.
Yesterday
High -- | Low -- °F
Precip. -- in
6:17 AM 7:27 PM
Waxing Crescent, 30% visible
Pressure 29.91 in
Visibility 6.0 miles
Clouds Few 8000 ft
Mostly Cloudy 10000 ft
Mostly Cloudy 12000 ft
Dew Point 54 °F
Humidity 82%
Rainfall 0.00 in
Snow Depth Not available.
UV 0.0 out of 12
Pollen 8.60 out of 12
Air Quality Not available.
Flu Activity Not available.
SPECI KAIA 311202Z AUTO 27028G36KT 6SM TSRA BR FEW080 BKN100 BKN120 13/11 A2991 RMK AO2 PK WND 27036/1202 LTG DSNT W AND NW RAB1158 TSB1156 PRESRR P0002 T01280111

More Conditions Fewer Conditions

Pressure 29.91 in
Visibility 6.0 miles
Clouds Few 8000 ft
Mostly Cloudy 10000 ft
Mostly Cloudy 12000 ft
Dew Point 54 °F
Humidity 82%
Rainfall 0.00 in
Snow Depth Not available.
UV 0.0 out of 12
Pollen 8.60 out of 12
Air Quality Not available.
Flu Activity Not available.
SPECI KAIA 311202Z AUTO 27028G36KT 6SM TSRA BR FEW080 BKN100 BKN120 13/11 A2991 RMK AO2 PK WND 27036/1202 LTG DSNT W AND NW RAB1158 TSB1156 PRESRR P0002 T01280111

More Conditions Fewer Conditions

10-Day Weather Forecast

Almanac

Astronomy

Aug. 31, 2014 Rise Set
Actual Time 6:17 AM MDT 7:27 PM MDT
Civil Twilight 5:48 AM MDT 7:55 PM MDT
Nautical Twilight 5:14 AM MDT 8:29 PM MDT
Astronomical Twilight 4:38 AM MDT 9:05 PM MDT
Moon 12:10 PM MDT 10:38 PM MDT
Length of Visible Light 14h 06m
Length of Day
13h 09m
Tomorrow will be 2m 40s shorter.
Waxing Crescent, 30% of the Moon is Illuminated
Today
Waxing Crescent
Sep 2
First Quarter
Sep 8
Full
Sep 15
Last Quarter
Sep 24
New

Today's Extremes

State Highs State Lows

Community

WunderPhotos

Upload Photos

1,748,853 photos uploaded!

Nearby

Snow Depth

Station Depth Elevation
No new snow has been reported.

Earthquake Activity

City Distance Mag. Time & Date
No recent earthquake activity has been reported nearby.
Minimum magnitude displayed is 2.5.

Coastal Water Temperatures

Place Temperature
No Stations Reporting

Nearby Weather Stations